Crockett, TX (75835)

11:34 AM CDT on July 28, 2014 (GMT -0500)
Crockett (KDKR) Elev 348 ft | 31.31 °N, 95.40 °W | Change Station

Current weather conditions updated 19 minutes ago

Clear
Clear
90 °F
Feels Like 105 °F
N
9
Wind Variable Wind from WSW

Today is forecast to be nearly the same temperature as yesterday.

Today
High -- | Low -- °F
--% Chance of Precip.
Yesterday
High -- | Low -- °F
Precip. -- in
6:35 AM 8:20 PM
Waxing Crescent, 3% visible
Pressure 30.16 in
Visibility 8.0 miles
Clouds Clear
Heat Index 105 °F
Dew Point 79 °F
Humidity 70%
Rainfall 0.00 in
Snow Depth Not available.
UV 9 out of 12
Pollen 3.30 out of 12
Air Quality Not available.
Flu Activity Not available.
METAR KDKR 281615Z AUTO 24008KT 8SM CLR 32/26 A3016 RMK AO2

More Conditions Fewer Conditions

Pressure 30.16 in
Visibility 8.0 miles
Clouds Clear
Heat Index 105 °F
Dew Point 79 °F
Humidity 70%
Rainfall 0.00 in
Snow Depth Not available.
UV 9 out of 12
Pollen 3.30 out of 12
Air Quality Not available.
Flu Activity Not available.
METAR KDKR 281615Z AUTO 24008KT 8SM CLR 32/26 A3016 RMK AO2

More Conditions Fewer Conditions

10-Day Weather Forecast

Almanac

Astronomy

Jul. 28, 2014 Rise Set
Actual Time 6:35 AM CDT 8:20 PM CDT
Civil Twilight 6:09 AM CDT 8:46 PM CDT
Nautical Twilight 5:37 AM CDT 9:18 PM CDT
Astronomical Twilight 5:03 AM CDT 9:52 PM CDT
Moon 8:08 AM CDT 9:14 PM CDT
Length of Visible Light 14h 37m
Length of Day
13h 44m
Tomorrow will be 1m 20s shorter.
Waxing Crescent, 3% of the Moon is Illuminated
Today
Waxing Crescent
Aug 3
First Quarter
Aug 10
Full
Aug 17
Last Quarter
Aug 25
New

Today's Extremes

State Highs State Lows

Community

WunderPhotos

Upload Photos

1,738,407 photos uploaded!

Nearby

Snow Depth

Station Depth Elevation
No new snow has been reported.

Earthquake Activity

City Distance Mag. Time & Date
No recent earthquake activity has been reported nearby.
Minimum magnitude displayed is 2.5.

Coastal Water Temperatures

Place Temperature
No Stations Reporting

Nearby Weather Stations

Station Location Temp. Heat Index Dew Point Humidity Wind Precip. Elev Updated Type
MesoWest AMPSET , Latexo, TX 76 °F 74 °F - - North  at  - 0.00 in / hr 354 ft 7:40 AM CDT MADIS
Porter Springs Hwy 7 West, Crockett, TX 88.6 °F 104 °F 79 °F 73% SSW  at  6.0 mph 0.00 in / hr 328 ft 11:25 AM CDT Normal
Golden Acres, Houston County Lake, Crockett, TX 88.3 °F 102 °F 78 °F 71% WSW  at  2.2 mph - / hr 272 ft 11:21 AM CDT Normal
Percilla, Grapeland, TX 87.1 °F 97 °F 76 °F 69% West  at  2.0 mph 0.00 in / hr 499 ft 11:33 AM CDT Rapid Fire
RAWS RATCLIFF TX, Ratcliff, TX 88 °F 95 °F 72 °F 60% SSW  at  4 mph 0.00 in / hr 434 ft 11:02 AM CDT MADIS
MesoWest SALMON , Slocum, TX 83 °F 81 °F - - North  at  - 0.00 in / hr 461 ft 8:15 AM CDT MADIS
Rockin'Gz Ranch, Centerville, TX 87.8 °F 97 °F 75 °F 65% East  at  1.0 mph 0.00 in / hr 193 ft 11:29 AM CDT Normal

Show More Stations Show Fewer Stations